sensor_id;sensor_type;location;lat;lon;timestamp;P1;durP1;ratioP1;P2;durP2;ratioP2
15856;SDS011;8028;53.612;10.038;2022-07-21T00:01:33;9.77;;;8.75;;
15856;SDS011;8028;53.612;10.038;2022-07-21T00:03:59;10.32;;;9.23;;
15856;SDS011;8028;53.612;10.038;2022-07-21T00:06:25;10.00;;;8.88;;
15856;SDS011;8028;53.612;10.038;2022-07-21T00:08:50;12.18;;;9.88;;
15856;SDS011;8028;53.612;10.038;2022-07-21T00:11:16;13.13;;;11.20;;
15856;SDS011;8028;53.612;10.038;2022-07-21T00:13:42;16.08;;;10.68;;
15856;SDS011;8028;53.612;10.038;2022-07-21T00:16:08;12.77;;;10.43;;
15856;SDS011;8028;53.612;10.038;2022-07-21T00:18:33;11.50;;;10.35;;
15856;SDS011;8028;53.612;10.038;2022-07-21T00:20:59;11.75;;;10.55;;
15856;SDS011;8028;53.612;10.038;2022-07-21T00:23:25;13.50;;;12.07;;
15856;SDS011;8028;53.612;10.038;2022-07-21T00:25:51;12.00;;;10.73;;
15856;SDS011;8028;53.612;10.038;2022-07-21T00:28:17;11.25;;;10.10;;
15856;SDS011;8028;53.612;10.038;2022-07-21T00:30:44;11.23;;;9.70;;
15856;SDS011;8028;53.612;10.038;2022-07-21T00:33:11;13.43;;;10.93;;
15856;SDS011;8028;53.612;10.038;2022-07-21T00:35:37;14.02;;;11.07;;
15856;SDS011;8028;53.612;10.038;2022-07-21T00:38:02;16.90;;;11.65;;
15856;SDS011;8028;53.612;10.038;2022-07-21T00:40:29;13.23;;;10.65;;
15856;SDS011;8028;53.612;10.038;2022-07-21T00:42:55;18.73;;;12.00;;
15856;SDS011;8028;53.612;10.038;2022-07-21T00:45:21;13.57;;;11.38;;
15856;SDS011;8028;53.612;10.038;2022-07-21T00:47:47;13.50;;;11.63;;
15856;SDS011;8028;53.612;10.038;2022-07-21T00:50:19;17.20;;;12.73;;
15856;SDS011;8028;53.612;10.038;2022-07-21T00:52:45;18.20;;;11.73;;
15856;SDS011;8028;53.612;10.038;2022-07-21T00:55:12;17.63;;;12.38;;
15856;SDS011;8028;53.612;10.038;2022-07-21T00:57:42;19.35;;;12.88;;
15856;SDS011;8028;53.612;10.038;2022-07-21T01:00:10;13.50;;;12.05;;
15856;SDS011;8028;53.612;10.038;2022-07-21T01:02:47;17.02;;;13.02;;
15856;SDS011;8028;53.612;10.038;2022-07-21T01:05:13;14.25;;;12.27;;
15856;SDS011;8028;53.612;10.038;2022-07-21T01:07:47;13.80;;;12.38;;
15856;SDS011;8028;53.612;10.038;2022-07-21T01:10:16;14.43;;;11.90;;
15856;SDS011;8028;53.612;10.038;2022-07-21T01:12:42;13.65;;;12.15;;
15856;SDS011;8028;53.612;10.038;2022-07-21T01:15:09;14.95;;;13.35;;
15856;SDS011;8028;53.612;10.038;2022-07-21T01:17:37;15.57;;;12.05;;
15856;SDS011;8028;53.612;10.038;2022-07-21T01:20:04;14.30;;;11.65;;
15856;SDS011;8028;53.612;10.038;2022-07-21T01:22:35;23.45;;;13.90;;
15856;SDS011;8028;53.612;10.038;2022-07-21T01:25:04;14.40;;;12.65;;
15856;SDS011;8028;53.612;10.038;2022-07-21T01:27:30;16.10;;;12.75;;
15856;SDS011;8028;53.612;10.038;2022-07-21T01:29:56;13.95;;;11.75;;
15856;SDS011;8028;53.612;10.038;2022-07-21T01:32:22;12.80;;;11.35;;
15856;SDS011;8028;53.612;10.038;2022-07-21T01:34:48;16.85;;;12.35;;
15856;SDS011;8028;53.612;10.038;2022-07-21T01:37:13;17.70;;;12.23;;
15856;SDS011;8028;53.612;10.038;2022-07-21T01:39:39;15.68;;;13.07;;
15856;SDS011;8028;53.612;10.038;2022-07-21T01:42:31;18.85;;;13.25;;
15856;SDS011;8028;53.612;10.038;2022-07-21T01:44:56;16.23;;;13.45;;
15856;SDS011;8028;53.612;10.038;2022-07-21T01:47:22;16.58;;;12.88;;
15856;SDS011;8028;53.612;10.038;2022-07-21T01:49:48;15.38;;;12.02;;
15856;SDS011;8028;53.612;10.038;2022-07-21T01:52:14;16.30;;;12.80;;
15856;SDS011;8028;53.612;10.038;2022-07-21T01:54:39;15.80;;;12.70;;
15856;SDS011;8028;53.612;10.038;2022-07-21T01:57:05;20.75;;;12.45;;
15856;SDS011;8028;53.612;10.038;2022-07-21T01:59:31;14.75;;;10.82;;
15856;SDS011;8028;53.612;10.038;2022-07-21T02:01:56;16.73;;;12.65;;
15856;SDS011;8028;53.612;10.038;2022-07-21T02:04:22;17.08;;;12.07;;
15856;SDS011;8028;53.612;10.038;2022-07-21T02:06:48;16.90;;;12.45;;
15856;SDS011;8028;53.612;10.038;2022-07-21T02:09:13;21.25;;;12.18;;
15856;SDS011;8028;53.612;10.038;2022-07-21T02:11:39;15.70;;;12.68;;
15856;SDS011;8028;53.612;10.038;2022-07-21T02:14:05;13.85;;;11.23;;
15856;SDS011;8028;53.612;10.038;2022-07-21T02:16:30;14.30;;;10.98;;
15856;SDS011;8028;53.612;10.038;2022-07-21T02:18:56;19.70;;;12.68;;
15856;SDS011;8028;53.612;10.038;2022-07-21T02:21:22;13.15;;;11.70;;
15856;SDS011;8028;53.612;10.038;2022-07-21T02:23:47;16.25;;;12.70;;
15856;SDS011;8028;53.612;10.038;2022-07-21T02:26:13;17.75;;;12.40;;
15856;SDS011;8028;53.612;10.038;2022-07-21T02:28:39;18.42;;;12.65;;
15856;SDS011;8028;53.612;10.038;2022-07-21T02:31:05;14.63;;;11.80;;
15856;SDS011;8028;53.612;10.038;2022-07-21T02:33:32;13.43;;;11.48;;
15856;SDS011;8028;53.612;10.038;2022-07-21T02:35:58;17.05;;;12.23;;
15856;SDS011;8028;53.612;10.038;2022-07-21T02:38:24;18.70;;;12.55;;
15856;SDS011;8028;53.612;10.038;2022-07-21T02:40:49;14.98;;;11.52;;
15856;SDS011;8028;53.612;10.038;2022-07-21T02:43:15;14.95;;;12.95;;
15856;SDS011;8028;53.612;10.038;2022-07-21T02:45:41;22.73;;;13.75;;
15856;SDS011;8028;53.612;10.038;2022-07-21T02:48:09;21.98;;;15.05;;
15856;SDS011;8028;53.612;10.038;2022-07-21T02:50:37;23.20;;;13.82;;
15856;SDS011;8028;53.612;10.038;2022-07-21T02:53:08;19.80;;;12.95;;
15856;SDS011;8028;53.612;10.038;2022-07-21T02:55:38;19.52;;;14.20;;
15856;SDS011;8028;53.612;10.038;2022-07-21T02:58:05;22.33;;;15.88;;
15856;SDS011;8028;53.612;10.038;2022-07-21T03:00:33;22.55;;;15.85;;
15856;SDS011;8028;53.612;10.038;2022-07-21T03:03:00;21.88;;;14.88;;
15856;SDS011;8028;53.612;10.038;2022-07-21T03:05:26;17.85;;;14.95;;
15856;SDS011;8028;53.612;10.038;2022-07-21T03:07:52;18.00;;;15.18;;
15856;SDS011;8028;53.612;10.038;2022-07-21T03:10:17;20.23;;;16.45;;
15856;SDS011;8028;53.612;10.038;2022-07-21T03:12:43;21.92;;;16.48;;
15856;SDS011;8028;53.612;10.038;2022-07-21T03:15:08;25.67;;;16.90;;
15856;SDS011;8028;53.612;10.038;2022-07-21T03:17:34;18.75;;;15.18;;
15856;SDS011;8028;53.612;10.038;2022-07-21T03:20:00;21.38;;;16.52;;
15856;SDS011;8028;53.612;10.038;2022-07-21T03:22:26;24.33;;;15.63;;
15856;SDS011;8028;53.612;10.038;2022-07-21T03:24:51;19.67;;;15.63;;
15856;SDS011;8028;53.612;10.038;2022-07-21T03:27:17;20.73;;;14.77;;
15856;SDS011;8028;53.612;10.038;2022-07-21T03:29:43;21.05;;;14.60;;
15856;SDS011;8028;53.612;10.038;2022-07-21T03:32:09;15.77;;;13.63;;
15856;SDS011;8028;53.612;10.038;2022-07-21T03:34:35;21.08;;;13.50;;
15856;SDS011;8028;53.612;10.038;2022-07-21T03:37:00;18.13;;;13.73;;
15856;SDS011;8028;53.612;10.038;2022-07-21T03:39:26;22.45;;;13.80;;
15856;SDS011;8028;53.612;10.038;2022-07-21T03:41:52;16.35;;;11.93;;
15856;SDS011;8028;53.612;10.038;2022-07-21T03:44:17;16.33;;;11.80;;
15856;SDS011;8028;53.612;10.038;2022-07-21T03:46:43;20.90;;;12.07;;
15856;SDS011;8028;53.612;10.038;2022-07-21T03:49:09;15.75;;;11.27;;
15856;SDS011;8028;53.612;10.038;2022-07-21T03:51:35;12.80;;;10.32;;
15856;SDS011;8028;53.612;10.038;2022-07-21T03:54:00;14.73;;;9.98;;
15856;SDS011;8028;53.612;10.038;2022-07-21T03:56:27;17.35;;;10.68;;
15856;SDS011;8028;53.612;10.038;2022-07-21T03:58:53;16.83;;;9.68;;
15856;SDS011;8028;53.612;10.038;2022-07-21T04:01:20;14.75;;;9.60;;
15856;SDS011;8028;53.612;10.038;2022-07-21T04:03:46;21.45;;;10.00;;
15856;SDS011;8028;53.612;10.038;2022-07-21T04:06:11;15.02;;;8.00;;
15856;SDS011;8028;53.612;10.038;2022-07-21T04:08:37;14.32;;;8.38;;
15856;SDS011;8028;53.612;10.038;2022-07-21T04:11:03;15.52;;;7.55;;
15856;SDS011;8028;53.612;10.038;2022-07-21T04:13:29;13.98;;;8.15;;
15856;SDS011;8028;53.612;10.038;2022-07-21T04:15:55;11.48;;;6.75;;
15856;SDS011;8028;53.612;10.038;2022-07-21T04:18:21;12.20;;;7.68;;
15856;SDS011;8028;53.612;10.038;2022-07-21T04:20:47;19.23;;;7.90;;
15856;SDS011;8028;53.612;10.038;2022-07-21T04:23:13;10.00;;;6.82;;
15856;SDS011;8028;53.612;10.038;2022-07-21T04:25:39;17.90;;;7.25;;
15856;SDS011;8028;53.612;10.038;2022-07-21T04:28:05;13.38;;;7.47;;
15856;SDS011;8028;53.612;10.038;2022-07-21T04:30:32;13.85;;;7.65;;
15856;SDS011;8028;53.612;10.038;2022-07-21T04:32:58;11.57;;;7.78;;
15856;SDS011;8028;53.612;10.038;2022-07-21T04:35:27;12.77;;;6.97;;
15856;SDS011;8028;53.612;10.038;2022-07-21T04:38:17;22.08;;;6.95;;
15856;SDS011;8028;53.612;10.038;2022-07-21T04:43:51;15.05;;;6.57;;
15856;SDS011;8028;53.612;10.038;2022-07-21T04:46:17;15.60;;;6.30;;
15856;SDS011;8028;53.612;10.038;2022-07-21T04:48:43;8.75;;;6.43;;
15856;SDS011;8028;53.612;10.038;2022-07-21T04:51:11;11.50;;;6.78;;
15856;SDS011;8028;53.612;10.038;2022-07-21T04:53:37;9.68;;;6.03;;
15856;SDS011;8028;53.612;10.038;2022-07-21T04:56:03;12.57;;;5.32;;
15856;SDS011;8028;53.612;10.038;2022-07-21T04:58:29;15.27;;;5.97;;
15856;SDS011;8028;53.612;10.038;2022-07-21T05:00:58;13.05;;;5.70;;
15856;SDS011;8028;53.612;10.038;2022-07-21T05:03:25;14.35;;;6.35;;
15856;SDS011;8028;53.612;10.038;2022-07-21T05:05:51;7.45;;;5.57;;
15856;SDS011;8028;53.612;10.038;2022-07-21T05:08:17;12.13;;;6.25;;
15856;SDS011;8028;53.612;10.038;2022-07-21T05:10:45;11.13;;;6.55;;
15856;SDS011;8028;53.612;10.038;2022-07-21T05:13:11;12.85;;;6.60;;
15856;SDS011;8028;53.612;10.038;2022-07-21T05:15:38;13.43;;;7.25;;
15856;SDS011;8028;53.612;10.038;2022-07-21T05:18:07;16.02;;;7.10;;
15856;SDS011;8028;53.612;10.038;2022-07-21T05:20:33;8.70;;;5.47;;
15856;SDS011;8028;53.612;10.038;2022-07-21T05:23:02;13.15;;;5.65;;
15856;SDS011;8028;53.612;10.038;2022-07-21T05:25:28;11.52;;;6.53;;
15856;SDS011;8028;53.612;10.038;2022-07-21T05:28:12;10.30;;;4.97;;
15856;SDS011;8028;53.612;10.038;2022-07-21T05:30:38;9.40;;;6.05;;
15856;SDS011;8028;53.612;10.038;2022-07-21T05:33:07;10.88;;;5.13;;
15856;SDS011;8028;53.612;10.038;2022-07-21T05:35:46;14.13;;;6.18;;
15856;SDS011;8028;53.612;10.038;2022-07-21T05:38:15;10.55;;;5.60;;
15856;SDS011;8028;53.612;10.038;2022-07-21T05:40:41;8.13;;;4.90;;
15856;SDS011;8028;53.612;10.038;2022-07-21T05:43:07;15.40;;;4.90;;
15856;SDS011;8028;53.612;10.038;2022-07-21T05:45:34;10.65;;;5.38;;
15856;SDS011;8028;53.612;10.038;2022-07-21T05:48:00;11.40;;;5.18;;
15856;SDS011;8028;53.612;10.038;2022-07-21T05:50:31;8.60;;;4.85;;
15856;SDS011;8028;53.612;10.038;2022-07-21T05:52:57;13.65;;;5.93;;
15856;SDS011;8028;53.612;10.038;2022-07-21T05:55:23;12.30;;;5.82;;
15856;SDS011;8028;53.612;10.038;2022-07-21T05:57:49;10.05;;;5.28;;
15856;SDS011;8028;53.612;10.038;2022-07-21T06:00:15;8.45;;;5.35;;
15856;SDS011;8028;53.612;10.038;2022-07-21T06:02:42;8.82;;;5.60;;
15856;SDS011;8028;53.612;10.038;2022-07-21T06:05:09;8.90;;;4.47;;
15856;SDS011;8028;53.612;10.038;2022-07-21T06:07:43;8.98;;;4.40;;
15856;SDS011;8028;53.612;10.038;2022-07-21T06:10:09;9.38;;;4.90;;
15856;SDS011;8028;53.612;10.038;2022-07-21T06:12:35;12.57;;;5.53;;
15856;SDS011;8028;53.612;10.038;2022-07-21T06:15:01;11.18;;;4.93;;
15856;SDS011;8028;53.612;10.038;2022-07-21T06:17:31;10.48;;;5.38;;
15856;SDS011;8028;53.612;10.038;2022-07-21T06:20:03;7.28;;;5.22;;
15856;SDS011;8028;53.612;10.038;2022-07-21T06:22:38;18.10;;;6.50;;
15856;SDS011;8028;53.612;10.038;2022-07-21T06:25:30;12.48;;;5.07;;
15856;SDS011;8028;53.612;10.038;2022-07-21T06:27:59;8.80;;;4.78;;
15856;SDS011;8028;53.612;10.038;2022-07-21T06:30:25;11.65;;;5.60;;
15856;SDS011;8028;53.612;10.038;2022-07-21T06:32:51;13.73;;;6.18;;
15856;SDS011;8028;53.612;10.038;2022-07-21T06:35:17;7.82;;;5.40;;
15856;SDS011;8028;53.612;10.038;2022-07-21T06:37:46;11.95;;;6.20;;
15856;SDS011;8028;53.612;10.038;2022-07-21T06:43:14;9.73;;;6.82;;
15856;SDS011;8028;53.612;10.038;2022-07-21T06:45:57;18.58;;;7.55;;
15856;SDS011;8028;53.612;10.038;2022-07-21T06:49:04;11.40;;;7.00;;
15856;SDS011;8028;53.612;10.038;2022-07-21T06:51:33;13.07;;;7.78;;
15856;SDS011;8028;53.612;10.038;2022-07-21T06:54:10;15.32;;;8.60;;
15856;SDS011;8028;53.612;10.038;2022-07-21T06:56:45;13.30;;;7.38;;
15856;SDS011;8028;53.612;10.038;2022-07-21T07:03:20;16.92;;;8.75;;
15856;SDS011;8028;53.612;10.038;2022-07-21T07:05:49;10.93;;;8.15;;
15856;SDS011;8028;53.612;10.038;2022-07-21T07:09:04;16.08;;;8.57;;
15856;SDS011;8028;53.612;10.038;2022-07-21T07:11:50;20.92;;;9.48;;
15856;SDS011;8028;53.612;10.038;2022-07-21T07:15:04;10.30;;;8.43;;
15856;SDS011;8028;53.612;10.038;2022-07-21T07:26:19;17.98;;;9.90;;
15856;SDS011;8028;53.612;10.038;2022-07-21T07:28:48;11.00;;;8.57;;
15856;SDS011;8028;53.612;10.038;2022-07-21T07:31:13;18.45;;;9.35;;
15856;SDS011;8028;53.612;10.038;2022-07-21T07:33:39;13.77;;;9.23;;
15856;SDS011;8028;53.612;10.038;2022-07-21T07:36:05;15.48;;;10.63;;
15856;SDS011;8028;53.612;10.038;2022-07-21T07:38:32;11.88;;;9.15;;
15856;SDS011;8028;53.612;10.038;2022-07-21T07:40:57;13.23;;;8.70;;
15856;SDS011;8028;53.612;10.038;2022-07-21T07:43:23;15.48;;;11.63;;
15856;SDS011;8028;53.612;10.038;2022-07-21T07:45:48;16.25;;;10.45;;
15856;SDS011;8028;53.612;10.038;2022-07-21T07:48:14;14.20;;;10.52;;
15856;SDS011;8028;53.612;10.038;2022-07-21T07:50:40;11.88;;;9.80;;
15856;SDS011;8028;53.612;10.038;2022-07-21T07:53:05;16.33;;;11.82;;
15856;SDS011;8028;53.612;10.038;2022-07-21T07:55:31;17.90;;;11.48;;
15856;SDS011;8028;53.612;10.038;2022-07-21T07:57:57;15.00;;;11.52;;
15856;SDS011;8028;53.612;10.038;2022-07-21T08:00:23;17.63;;;10.82;;
15856;SDS011;8028;53.612;10.038;2022-07-21T08:02:49;16.25;;;11.32;;
15856;SDS011;8028;53.612;10.038;2022-07-21T08:05:14;14.10;;;11.13;;
15856;SDS011;8028;53.612;10.038;2022-07-21T08:07:40;21.05;;;12.60;;
15856;SDS011;8028;53.612;10.038;2022-07-21T08:10:07;15.05;;;11.43;;
15856;SDS011;8028;53.612;10.038;2022-07-21T08:12:35;15.05;;;11.18;;
15856;SDS011;8028;53.612;10.038;2022-07-21T08:15:00;18.30;;;12.27;;
15856;SDS011;8028;53.612;10.038;2022-07-21T08:17:26;19.08;;;11.80;;
15856;SDS011;8028;53.612;10.038;2022-07-21T08:19:52;20.60;;;12.95;;
15856;SDS011;8028;53.612;10.038;2022-07-21T08:22:17;17.33;;;13.02;;
15856;SDS011;8028;53.612;10.038;2022-07-21T08:24:43;15.98;;;13.20;;
15856;SDS011;8028;53.612;10.038;2022-07-21T08:27:09;17.80;;;12.90;;
15856;SDS011;8028;53.612;10.038;2022-07-21T08:29:34;20.15;;;13.55;;
15856;SDS011;8028;53.612;10.038;2022-07-21T08:32:00;14.48;;;12.85;;
15856;SDS011;8028;53.612;10.038;2022-07-21T08:34:26;16.98;;;14.98;;
15856;SDS011;8028;53.612;10.038;2022-07-21T08:36:52;20.73;;;13.73;;
15856;SDS011;8028;53.612;10.038;2022-07-21T08:39:18;14.77;;;12.68;;
15856;SDS011;8028;53.612;10.038;2022-07-21T08:41:44;18.13;;;15.00;;
15856;SDS011;8028;53.612;10.038;2022-07-21T08:44:10;15.95;;;12.85;;
15856;SDS011;8028;53.612;10.038;2022-07-21T08:46:37;16.95;;;13.85;;
15856;SDS011;8028;53.612;10.038;2022-07-21T08:49:05;16.73;;;14.15;;
15856;SDS011;8028;53.612;10.038;2022-07-21T08:51:33;17.08;;;15.23;;
15856;SDS011;8028;53.612;10.038;2022-07-21T08:53:59;19.27;;;14.13;;
15856;SDS011;8028;53.612;10.038;2022-07-21T08:56:25;23.13;;;17.23;;
15856;SDS011;8028;53.612;10.038;2022-07-21T08:58:51;20.25;;;14.80;;
15856;SDS011;8028;53.612;10.038;2022-07-21T09:01:17;18.80;;;16.63;;
15856;SDS011;8028;53.612;10.038;2022-07-21T09:03:42;18.83;;;16.80;;
15856;SDS011;8028;53.612;10.038;2022-07-21T09:06:09;20.10;;;16.70;;
15856;SDS011;8028;53.612;10.038;2022-07-21T09:08:45;21.48;;;17.25;;
15856;SDS011;8028;53.612;10.038;2022-07-21T09:11:22;20.63;;;16.08;;
15856;SDS011;8028;53.612;10.038;2022-07-21T09:14:07;25.50;;;16.60;;
15856;SDS011;8028;53.612;10.038;2022-07-21T09:19:01;19.92;;;16.02;;
15856;SDS011;8028;53.612;10.038;2022-07-21T09:21:27;17.83;;;15.60;;
15856;SDS011;8028;53.612;10.038;2022-07-21T09:24:10;19.38;;;17.15;;
15856;SDS011;8028;53.612;10.038;2022-07-21T09:26:56;18.58;;;16.48;;
15856;SDS011;8028;53.612;10.038;2022-07-21T09:29:38;18.88;;;16.90;;
15856;SDS011;8028;53.612;10.038;2022-07-21T09:32:14;18.52;;;16.73;;
15856;SDS011;8028;53.612;10.038;2022-07-21T09:34:40;18.90;;;16.95;;
15856;SDS011;8028;53.612;10.038;2022-07-21T09:37:06;18.92;;;16.27;;
15856;SDS011;8028;53.612;10.038;2022-07-21T09:42:22;19.33;;;14.85;;
15856;SDS011;8028;53.612;10.038;2022-07-21T09:47:24;18.35;;;15.30;;
15856;SDS011;8028;53.612;10.038;2022-07-21T09:49:52;16.27;;;14.77;;
15856;SDS011;8028;53.612;10.038;2022-07-21T09:52:31;17.63;;;15.90;;
15856;SDS011;8028;53.612;10.038;2022-07-21T09:55:03;16.58;;;13.75;;
15856;SDS011;8028;53.612;10.038;2022-07-21T09:57:31;17.83;;;14.70;;
15856;SDS011;8028;53.612;10.038;2022-07-21T09:59:59;16.33;;;13.05;;
15856;SDS011;8028;53.612;10.038;2022-07-21T10:02:29;18.63;;;14.05;;
15856;SDS011;8028;53.612;10.038;2022-07-21T10:07:30;14.02;;;11.82;;
15856;SDS011;8028;53.612;10.038;2022-07-21T10:09:56;13.63;;;12.07;;
15856;SDS011;8028;53.612;10.038;2022-07-21T10:12:23;14.10;;;12.70;;
15856;SDS011;8028;53.612;10.038;2022-07-21T10:14:50;14.63;;;13.00;;
15856;SDS011;8028;53.612;10.038;2022-07-21T10:17:17;14.00;;;11.13;;
15856;SDS011;8028;53.612;10.038;2022-07-21T10:20:04;13.98;;;12.32;;
15856;SDS011;8028;53.612;10.038;2022-07-21T10:22:52;18.45;;;13.68;;
15856;SDS011;8028;53.612;10.038;2022-07-21T10:25:39;14.32;;;11.93;;
15856;SDS011;8028;53.612;10.038;2022-07-21T10:30:46;17.15;;;12.82;;
15856;SDS011;8028;53.612;10.038;2022-07-21T10:33:13;11.82;;;10.65;;
15856;SDS011;8028;53.612;10.038;2022-07-21T10:35:44;13.80;;;12.45;;
15856;SDS011;8028;53.612;10.038;2022-07-21T10:38:25;16.73;;;12.93;;
15856;SDS011;8028;53.612;10.038;2022-07-21T10:40:53;14.35;;;12.70;;
15856;SDS011;8028;53.612;10.038;2022-07-21T10:45:51;12.75;;;11.50;;
15856;SDS011;8028;53.612;10.038;2022-07-21T10:51:03;12.57;;;10.85;;
15856;SDS011;8028;53.612;10.038;2022-07-21T10:53:31;12.88;;;11.13;;
15856;SDS011;8028;53.612;10.038;2022-07-21T10:55:57;12.50;;;11.30;;
15856;SDS011;8028;53.612;10.038;2022-07-21T11:03:22;11.65;;;10.38;;
15856;SDS011;8028;53.612;10.038;2022-07-21T11:08:39;10.10;;;9.13;;
15856;SDS011;8028;53.612;10.038;2022-07-21T11:13:57;10.30;;;9.40;;
15856;SDS011;8028;53.612;10.038;2022-07-21T11:17:02;10.35;;;9.10;;
15856;SDS011;8028;53.612;10.038;2022-07-21T11:22:00;10.02;;;9.13;;
15856;SDS011;8028;53.612;10.038;2022-07-21T11:24:37;9.80;;;8.90;;
15856;SDS011;8028;53.612;10.038;2022-07-21T11:27:06;10.05;;;9.00;;
15856;SDS011;8028;53.612;10.038;2022-07-21T11:29:34;8.60;;;7.70;;
15856;SDS011;8028;53.612;10.038;2022-07-21T11:32:02;7.60;;;6.95;;
15856;SDS011;8028;53.612;10.038;2022-07-21T11:37:04;7.32;;;6.63;;
15856;SDS011;8028;53.612;10.038;2022-07-21T11:39:30;11.18;;;7.63;;
15856;SDS011;8028;53.612;10.038;2022-07-21T11:42:00;9.23;;;7.43;;
15856;SDS011;8028;53.612;10.038;2022-07-21T11:44:28;11.45;;;8.02;;
15856;SDS011;8028;53.612;10.038;2022-07-21T11:46:57;9.13;;;8.23;;
15856;SDS011;8028;53.612;10.038;2022-07-21T11:49:25;9.05;;;8.13;;
15856;SDS011;8028;53.612;10.038;2022-07-21T11:51:54;9.73;;;8.35;;
15856;SDS011;8028;53.612;10.038;2022-07-21T11:54:32;7.70;;;7.10;;
15856;SDS011;8028;53.612;10.038;2022-07-21T11:57:01;9.95;;;6.80;;
15856;SDS011;8028;53.612;10.038;2022-07-21T11:59:30;8.45;;;6.55;;
15856;SDS011;8028;53.612;10.038;2022-07-21T12:02:01;8.15;;;7.35;;
15856;SDS011;8028;53.612;10.038;2022-07-21T12:04:42;8.05;;;6.45;;
15856;SDS011;8028;53.612;10.038;2022-07-21T12:12:57;6.15;;;5.55;;
15856;SDS011;8028;53.612;10.038;2022-07-21T12:15:33;6.68;;;5.50;;
15856;SDS011;8028;53.612;10.038;2022-07-21T12:18:06;6.38;;;5.78;;
15856;SDS011;8028;53.612;10.038;2022-07-21T12:20:37;6.70;;;5.60;;
15856;SDS011;8028;53.612;10.038;2022-07-21T12:25:46;5.03;;;4.63;;
15856;SDS011;8028;53.612;10.038;2022-07-21T12:28:12;4.78;;;4.15;;
15856;SDS011;8028;53.612;10.038;2022-07-21T12:30:41;4.38;;;3.88;;
15856;SDS011;8028;53.612;10.038;2022-07-21T12:33:10;4.55;;;4.15;;
15856;SDS011;8028;53.612;10.038;2022-07-21T12:35:41;5.05;;;4.55;;
15856;SDS011;8028;53.612;10.038;2022-07-21T12:38:15;5.63;;;5.13;;
15856;SDS011;8028;53.612;10.038;2022-07-21T12:40:43;5.60;;;4.75;;
15856;SDS011;8028;53.612;10.038;2022-07-21T12:43:15;5.20;;;4.53;;
15856;SDS011;8028;53.612;10.038;2022-07-21T12:45:52;4.45;;;3.88;;
15856;SDS011;8028;53.612;10.038;2022-07-21T12:51:02;5.13;;;4.10;;
15856;SDS011;8028;53.612;10.038;2022-07-21T12:53:34;4.85;;;4.35;;
15856;SDS011;8028;53.612;10.038;2022-07-21T12:56:07;3.67;;;3.33;;
15856;SDS011;8028;53.612;10.038;2022-07-21T12:58:34;4.13;;;3.72;;
15856;SDS011;8028;53.612;10.038;2022-07-21T13:01:01;3.97;;;3.63;;
15856;SDS011;8028;53.612;10.038;2022-07-21T13:03:28;3.72;;;3.42;;
15856;SDS011;8028;53.612;10.038;2022-07-21T13:05:54;3.85;;;3.55;;
15856;SDS011;8028;53.612;10.038;2022-07-21T13:08:20;3.45;;;3.15;;
15856;SDS011;8028;53.612;10.038;2022-07-21T13:10:45;11.40;;;4.05;;
15856;SDS011;8028;53.612;10.038;2022-07-21T13:13:11;3.92;;;3.60;;
15856;SDS011;8028;53.612;10.038;2022-07-21T13:15:37;5.85;;;3.90;;
15856;SDS011;8028;53.612;10.038;2022-07-21T13:18:02;4.88;;;4.38;;
15856;SDS011;8028;53.612;10.038;2022-07-21T13:20:28;5.00;;;4.55;;
15856;SDS011;8028;53.612;10.038;2022-07-21T13:22:54;5.70;;;4.35;;
15856;SDS011;8028;53.612;10.038;2022-07-21T13:25:20;7.03;;;4.30;;
15856;SDS011;8028;53.612;10.038;2022-07-21T13:27:46;5.47;;;4.50;;
15856;SDS011;8028;53.612;10.038;2022-07-21T13:30:17;4.40;;;4.05;;
15856;SDS011;8028;53.612;10.038;2022-07-21T13:32:44;5.10;;;4.65;;
15856;SDS011;8028;53.612;10.038;2022-07-21T13:35:13;4.25;;;3.88;;
15856;SDS011;8028;53.612;10.038;2022-07-21T13:37:42;5.70;;;5.07;;
15856;SDS011;8028;53.612;10.038;2022-07-21T13:40:09;5.40;;;4.18;;
15856;SDS011;8028;53.612;10.038;2022-07-21T13:42:36;4.07;;;3.67;;
15856;SDS011;8028;53.612;10.038;2022-07-21T13:45:05;5.35;;;4.07;;
15856;SDS011;8028;53.612;10.038;2022-07-21T13:47:35;4.97;;;4.47;;
15856;SDS011;8028;53.612;10.038;2022-07-21T13:50:04;5.50;;;4.93;;
15856;SDS011;8028;53.612;10.038;2022-07-21T13:52:31;6.90;;;4.70;;
15856;SDS011;8028;53.612;10.038;2022-07-21T13:55:00;5.32;;;4.82;;
15856;SDS011;8028;53.612;10.038;2022-07-21T13:57:27;5.78;;;5.25;;
15856;SDS011;8028;53.612;10.038;2022-07-21T13:59:53;7.18;;;5.38;;
15856;SDS011;8028;53.612;10.038;2022-07-21T14:02:22;4.30;;;3.88;;
15856;SDS011;8028;53.612;10.038;2022-07-21T14:04:48;5.93;;;5.00;;
15856;SDS011;8028;53.612;10.038;2022-07-21T14:07:21;5.35;;;4.30;;
15856;SDS011;8028;53.612;10.038;2022-07-21T14:09:59;4.90;;;3.70;;
15856;SDS011;8028;53.612;10.038;2022-07-21T14:12:28;4.68;;;3.75;;
15856;SDS011;8028;53.612;10.038;2022-07-21T14:14:54;3.92;;;2.42;;
15856;SDS011;8028;53.612;10.038;2022-07-21T14:17:23;2.67;;;2.03;;
15856;SDS011;8028;53.612;10.038;2022-07-21T14:19:49;2.65;;;2.38;;
15856;SDS011;8028;53.612;10.038;2022-07-21T14:22:24;3.47;;;2.90;;
15856;SDS011;8028;53.612;10.038;2022-07-21T14:24:49;1.60;;;1.33;;
15856;SDS011;8028;53.612;10.038;2022-07-21T14:27:51;2.45;;;1.55;;
15856;SDS011;8028;53.612;10.038;2022-07-21T14:30:23;1.70;;;1.60;;
15856;SDS011;8028;53.612;10.038;2022-07-21T14:32:51;1.80;;;1.67;;
15856;SDS011;8028;53.612;10.038;2022-07-21T14:35:17;2.47;;;1.65;;
15856;SDS011;8028;53.612;10.038;2022-07-21T14:37:45;2.67;;;2.08;;
15856;SDS011;8028;53.612;10.038;2022-07-21T14:40:18;2.85;;;1.83;;
15856;SDS011;8028;53.612;10.038;2022-07-21T14:42:47;2.60;;;2.25;;
15856;SDS011;8028;53.612;10.038;2022-07-21T14:45:17;2.67;;;2.47;;
15856;SDS011;8028;53.612;10.038;2022-07-21T14:47:44;2.45;;;2.17;;
15856;SDS011;8028;53.612;10.038;2022-07-21T14:50:11;2.95;;;2.72;;
15856;SDS011;8028;53.612;10.038;2022-07-21T14:52:38;2.17;;;1.98;;
15856;SDS011;8028;53.612;10.038;2022-07-21T14:55:05;3.05;;;2.50;;
15856;SDS011;8028;53.612;10.038;2022-07-21T14:57:31;3.08;;;2.78;;
15856;SDS011;8028;53.612;10.038;2022-07-21T15:00:00;2.90;;;2.63;;
15856;SDS011;8028;53.612;10.038;2022-07-21T15:02:26;2.80;;;2.58;;
15856;SDS011;8028;53.612;10.038;2022-07-21T15:04:52;2.70;;;2.50;;
15856;SDS011;8028;53.612;10.038;2022-07-21T15:07:18;3.60;;;2.40;;
15856;SDS011;8028;53.612;10.038;2022-07-21T15:09:44;4.97;;;2.97;;
15856;SDS011;8028;53.612;10.038;2022-07-21T15:12:11;3.25;;;2.95;;
15856;SDS011;8028;53.612;10.038;2022-07-21T15:14:38;3.10;;;2.90;;
15856;SDS011;8028;53.612;10.038;2022-07-21T15:17:04;3.33;;;2.80;;
15856;SDS011;8028;53.612;10.038;2022-07-21T15:19:33;3.78;;;3.33;;
15856;SDS011;8028;53.612;10.038;2022-07-21T15:21:59;4.75;;;3.38;;
15856;SDS011;8028;53.612;10.038;2022-07-21T15:24:25;8.60;;;7.65;;
15856;SDS011;8028;53.612;10.038;2022-07-21T15:26:55;3.58;;;3.08;;
15856;SDS011;8028;53.612;10.038;2022-07-21T15:29:21;4.15;;;3.75;;
15856;SDS011;8028;53.612;10.038;2022-07-21T15:31:46;4.75;;;3.83;;
15856;SDS011;8028;53.612;10.038;2022-07-21T15:34:18;5.07;;;3.67;;
15856;SDS011;8028;53.612;10.038;2022-07-21T15:36:47;4.32;;;3.92;;
15856;SDS011;8028;53.612;10.038;2022-07-21T15:39:13;4.30;;;4.00;;
15856;SDS011;8028;53.612;10.038;2022-07-21T15:41:39;4.95;;;4.55;;
15856;SDS011;8028;53.612;10.038;2022-07-21T15:44:05;5.30;;;4.53;;
15856;SDS011;8028;53.612;10.038;2022-07-21T15:46:31;5.25;;;4.75;;